Time;durP1;ratioP1;P1;durP2;ratioP2;P2;SDS_P1;SDS_P2;PMS_P1;PMS_P2;Temp;Humidity;BMP_temperature;BMP_pressure;BME280_temperature;BME280_humidity;BME280_pressure;Samples;Min_cycle;Max_cycle;Signal;HPM_P1;HPM_P2
2021/05/21 00:04:23;;;;;;;6.87;1.10;;;13.80;99.90;;;;;;6703241;88;20221;-77
2021/05/21 00:14:24;;;;;;;1.95;1.10;;;13.80;99.90;;;;;;6701880;88;20311;-77
2021/05/21 00:24:25;;;;;;;2.08;1.00;;;13.60;99.90;;;;;;6701240;88;20278;-76
2021/05/21 00:34:26;;;;;;;2.00;0.90;;;13.60;99.90;;;;;;6701874;88;20213;-76
2021/05/21 00:44:27;;;;;;;1.52;0.80;;;13.60;99.90;;;;;;6701660;88;20880;-76
2021/05/21 00:54:27;;;;;;;1.58;0.90;;;13.50;99.90;;;;;;6700960;88;20203;-76
2021/05/21 01:04:50;;;;;;;1.40;0.80;;;13.60;99.90;;;;;;6715484;78;20282;-79
2021/05/21 01:14:53;;;;;;;1.62;0.90;;;13.50;99.90;;;;;;6718265;88;20199;-81
2021/05/21 01:24:53;;;;;;;1.67;0.68;;;13.50;99.90;;;;;;6722265;88;20198;-78
2021/05/21 01:34:54;;;;;;;3.08;0.80;;;13.40;99.90;;;;;;6714595;88;20202;-77
2021/05/21 01:44:55;;;;;;;2.40;0.88;;;13.50;99.90;;;;;;6713938;88;20197;-78
2021/05/21 01:54:56;;;;;;;1.60;0.75;;;13.50;99.90;;;;;;6713207;88;20213;-79
2021/05/21 02:04:56;;;;;;;2.58;0.68;;;13.50;99.90;;;;;;6726837;88;20683;-77
2021/05/21 02:14:59;;;;;;;3.12;0.80;;;13.50;99.90;;;;;;6728592;88;20917;-80
2021/05/21 02:25:01;;;;;;;1.20;0.65;;;13.60;99.90;;;;;;6707611;88;20244;-78
2021/05/21 02:35:02;;;;;;;1.27;0.60;;;13.70;99.90;;;;;;6710400;88;20744;-79
2021/05/21 02:45:04;;;;;;;3.53;0.80;;;13.70;99.90;;;;;;6712153;88;20707;-77
2021/05/21 02:55:05;;;;;;;1.67;0.60;;;13.70;99.90;;;;;;6707923;88;20284;-78
2021/05/21 03:05:06;;;;;;;1.48;0.60;;;13.60;99.90;;;;;;6708704;88;21203;-77
2021/05/21 03:15:07;;;;;;;3.22;0.75;;;13.50;99.90;;;;;;6710503;88;20208;-77
2021/05/21 03:25:08;;;;;;;1.15;0.50;;;13.50;99.90;;;;;;6713605;88;20198;-77
2021/05/21 03:35:09;;;;;;;1.55;0.50;;;13.60;99.90;;;;;;6718501;88;20202;-77
2021/05/21 03:45:10;;;;;;;2.80;0.80;;;13.60;99.90;;;;;;6712922;88;20194;-77
2021/05/21 03:55:11;;;;;;;3.72;0.70;;;13.70;99.90;;;;;;6713106;88;20248;-77
2021/05/21 04:05:12;;;;;;;2.55;0.60;;;13.70;99.90;;;;;;6710365;88;20219;-76
2021/05/21 04:15:13;;;;;;;1.10;0.40;;;13.70;99.90;;;;;;6711655;88;20246;-79
2021/05/21 04:25:14;;;;;;;1.75;0.90;;;13.60;99.90;;;;;;6708129;88;20196;-77
2021/05/21 04:35:15;;;;;;;2.37;0.60;;;13.60;99.90;;;;;;6708393;88;20241;-76
2021/05/21 04:45:16;;;;;;;2.33;0.77;;;13.70;99.90;;;;;;6714403;88;20193;-79
2021/05/21 04:55:16;;;;;;;3.45;0.50;;;13.70;99.90;;;;;;6710854;88;20308;-76
2021/05/21 05:05:17;;;;;;;2.37;0.70;;;13.80;99.90;;;;;;6713526;88;20255;-77
2021/05/21 05:15:19;;;;;;;1.70;0.70;;;13.70;99.90;;;;;;6713472;88;20314;-78
2021/05/21 05:25:21;;;;;;;2.47;0.80;;;13.70;99.90;;;;;;6711812;88;20185;-77
2021/05/21 05:35:21;;;;;;;4.75;0.70;;;13.80;99.90;;;;;;6712157;88;20265;-77
2021/05/21 05:45:22;;;;;;;3.03;0.70;;;13.90;99.90;;;;;;6710869;88;20386;-77
2021/05/21 05:55:23;;;;;;;1.62;0.50;;;14.10;99.90;;;;;;6713607;88;20286;-77
2021/05/21 06:05:23;;;;;;;1.62;0.70;;;14.30;99.90;;;;;;6712477;88;20225;-78
2021/05/21 06:15:24;;;;;;;1.67;0.60;;;14.30;99.90;;;;;;6711458;88;20734;-78
2021/05/21 06:25:39;;;;;;;3.10;0.80;;;14.40;99.90;;;;;;6707797;88;20375;-77
2021/05/21 06:35:40;;;;;;;2.93;0.40;;;14.70;99.90;;;;;;6702975;88;20483;-78
2021/05/21 06:45:41;;;;;;;1.85;0.70;;;14.80;99.90;;;;;;6715594;88;20725;-78
2021/05/21 06:55:43;;;;;;;3.75;0.62;;;14.90;99.90;;;;;;6708770;88;20753;-78
2021/05/21 07:06:04;;;;;;;2.85;0.68;;;15.00;99.90;;;;;;6687696;78;20214;-77
2021/05/21 07:16:04;;;;;;;3.55;0.73;;;15.30;99.90;;;;;;6701986;88;20704;-77
2021/05/21 07:26:05;;;;;;;2.30;0.65;;;15.20;99.90;;;;;;6702523;88;20185;-77
2021/05/21 07:36:06;;;;;;;2.70;0.70;;;15.30;99.90;;;;;;6702202;88;20222;-77
2021/05/21 07:46:06;;;;;;;2.42;0.77;;;15.60;99.90;;;;;;6703566;88;20297;-77
2021/05/21 07:56:07;;;;;;;5.50;0.95;;;15.50;99.90;;;;;;6702130;88;20277;-76
2021/05/21 08:06:08;;;;;;;3.15;0.70;;;16.30;98.20;;;;;;6703256;88;20232;-77
2021/05/21 08:16:10;;;;;;;3.62;0.93;;;16.00;97.70;;;;;;6702643;88;20209;-76
2021/05/21 08:26:11;;;;;;;4.22;0.80;;;16.40;97.50;;;;;;6707945;88;20237;-78
2021/05/21 08:36:13;;;;;;;3.75;0.95;;;17.50;96.40;;;;;;6700304;88;20245;-77
2021/05/21 08:46:15;;;;;;;5.55;1.00;;;16.70;97.10;;;;;;6705428;88;20171;-77
2021/05/21 08:56:15;;;;;;;5.80;1.00;;;17.20;95.40;;;;;;6706572;88;20307;-77
2021/05/21 09:06:23;;;;;;;2.50;0.88;;;17.30;94.90;;;;;;6705904;88;20222;-78
2021/05/21 09:16:26;;;;;;;3.67;0.82;;;17.90;94.30;;;;;;6707575;88;20306;-76
2021/05/21 09:26:42;;;;;;;3.72;0.85;;;18.20;90.60;;;;;;6705915;88;20676;-78
2021/05/21 09:36:42;;;;;;;5.43;0.95;;;18.60;90.30;;;;;;6707141;88;20190;-76
2021/05/21 09:46:47;;;;;;;4.45;0.75;;;18.60;86.70;;;;;;6703241;88;20189;-78
2021/05/21 09:57:05;;;;;;;3.47;1.08;;;18.80;86.90;;;;;;6703856;88;20279;-77
2021/05/21 10:07:07;;;;;;;6.50;1.10;;;18.20;84.30;;;;;;6698244;88;20195;-78
2021/05/21 10:17:09;;;;;;;4.05;0.90;;;18.10;84.80;;;;;;6704896;88;20200;-76
2021/05/21 10:27:19;;;;;;;5.55;1.05;;;17.80;83.60;;;;;;6700898;88;20314;-78
2021/05/21 10:37:36;;;;;;;5.75;1.10;;;18.80;82.70;;;;;;6703806;88;21053;-77
2021/05/21 10:47:38;;;;;;;5.60;1.08;;;18.90;80.90;;;;;;6703019;88;20284;-77
2021/05/21 11:05:36;;;;;;;6.12;1.10;;;19.20;78.60;;;;;;6795113;86;20795;-77
2021/05/21 11:15:39;;;;;;;5.75;1.10;;;20.30;76.60;;;;;;6780605;87;20280;-77
2021/05/21 11:26:24;;;;;;;5.57;1.00;;;19.70;76.60;;;;;;6776947;87;20220;-76
2021/05/21 11:36:27;;;;;;;5.00;0.93;;;18.90;75.20;;;;;;6775911;87;20199;-77
2021/05/21 11:46:28;;;;;;;5.47;1.00;;;20.90;76.00;;;;;;6780683;87;20217;-78
2021/05/21 11:56:38;;;;;;;6.40;1.20;;;20.60;75.10;;;;;;6780274;87;20193;-77
2021/05/21 12:06:42;;;;;;;5.05;1.00;;;20.30;72.90;;;;;;6777605;87;20488;-79
2021/05/21 12:16:44;;;;;;;5.20;1.30;;;20.50;72.20;;;;;;6761596;87;20627;-77
2021/05/21 12:26:48;;;;;;;5.97;1.25;;;19.90;73.10;;;;;;6770900;87;20698;-77
2021/05/21 12:37:02;;;;;;;3.78;1.10;;;20.00;73.50;;;;;;6766574;87;20210;-77
2021/05/21 12:47:04;;;;;;;5.78;1.10;;;21.00;67.90;;;;;;6766511;87;20318;-78
2021/05/21 12:57:05;;;;;;;3.30;1.00;;;20.60;68.20;;;;;;6766709;87;20688;-76
2021/05/21 13:07:06;;;;;;;3.08;0.90;;;20.20;68.10;;;;;;6767549;87;20335;-77
2021/05/21 13:17:07;;;;;;;6.20;1.15;;;19.50;68.90;;;;;;6765220;87;20262;-77
2021/05/21 13:27:08;;;;;;;4.80;0.90;;;19.30;71.50;;;;;;6763877;87;20185;-77
2021/05/21 13:37:08;;;;;;;5.57;1.27;;;20.40;68.80;;;;;;6766439;87;20297;-77
2021/05/21 13:47:09;;;;;;;6.55;1.10;;;20.30;68.10;;;;;;6765657;87;20849;-77
2021/05/21 13:57:10;;;;;;;5.90;0.97;;;20.50;67.90;;;;;;6765460;87;20192;-77
2021/05/21 14:07:10;;;;;;;6.57;1.12;;;19.80;67.30;;;;;;6764914;87;20587;-77
2021/05/21 14:17:11;;;;;;;7.57;1.20;;;19.10;70.20;;;;;;6763302;87;20201;-76
2021/05/21 14:27:11;;;;;;;5.72;1.67;;;19.60;70.10;;;;;;6763250;87;20271;-78
2021/05/21 14:37:18;;;;;;;5.60;1.23;;;19.80;66.60;;;;;;6765052;87;20306;-76
2021/05/21 14:47:18;;;;;;;5.37;1.17;;;19.30;66.90;;;;;;6764486;87;20199;-78
2021/05/21 14:57:24;;;;;;;6.90;1.20;;;20.00;71.00;;;;;;6762340;87;20250;-76
2021/05/21 15:07:24;;;;;;;6.43;1.20;;;18.80;71.60;;;;;;6744604;87;20486;-76
2021/05/21 15:17:55;;;;;;;3.45;1.02;;;18.40;71.00;;;;;;6749336;88;20222;-76
2021/05/21 15:27:56;;;;;;;6.05;1.30;;;19.50;66.60;;;;;;6744412;88;20186;-78
2021/05/21 15:37:57;;;;;;;4.75;1.20;;;18.90;73.50;;;;;;6746561;88;20210;-76
2021/05/21 15:47:58;;;;;;;6.40;1.37;;;18.50;74.90;;;;;;6749605;88;20202;-75
2021/05/21 16:07:59;;;;;;;3.83;1.17;;;18.00;84.80;;;;;;6767685;87;20229;-77
2021/05/21 16:18:00;;;;;;;3.00;1.02;;;18.30;86.70;;;;;;6763680;87;20190;-78
2021/05/21 16:28:00;;;;;;;5.15;1.10;;;18.90;82.00;;;;;;6769612;87;20219;-76
2021/05/21 16:38:01;;;;;;;4.87;0.93;;;18.10;84.70;;;;;;6776009;87;20201;-76
2021/05/21 16:48:02;;;;;;;5.15;1.00;;;17.80;83.00;;;;;;6771302;87;20271;-74
2021/05/21 16:58:02;;;;;;;7.57;1.27;;;17.30;83.30;;;;;;6755337;87;20238;-77
2021/05/21 17:08:03;;;;;;;8.60;1.62;;;17.00;85.30;;;;;;6741628;88;20953;-75
2021/05/21 17:18:28;;;;;;;5.93;1.52;;;16.80;87.30;;;;;;6741199;88;20784;-78
2021/05/21 17:28:57;;;;;;;6.10;1.10;;;16.80;87.10;;;;;;6740307;88;20182;-76
2021/05/21 17:39:18;;;;;;;5.62;1.33;;;15.50;92.30;;;;;;6742431;88;20202;-77
2021/05/21 17:49:25;;;;;;;6.87;1.65;;;13.20;99.90;;;;;;6753895;88;20181;-77
2021/05/21 18:41:44;;;;;;;8.65;1.90;;;15.70;99.90;;;;;;6767225;87;20227;-77
2021/05/21 19:11:35;;;;;;;3.67;0.80;;;13.40;99.90;;;;;;6765065;87;20690;-78
2021/05/21 19:21:43;;;;;;;5.60;1.02;;;13.20;99.90;;;;;;6769079;87;20206;-77
2021/05/21 19:31:55;;;;;;;4.43;0.80;;;13.10;99.90;;;;;;6772313;87;20224;-78
2021/05/21 20:12:42;;;;;;;3.33;0.40;;;13.20;99.90;;;;;;6762513;87;20188;-76
2021/05/21 20:22:42;;;;;;;4.35;0.45;;;13.10;99.90;;;;;;6761219;87;20253;-76
2021/05/21 20:43:34;;;;;;;1.98;0.40;;;11.70;99.90;;;;;;6759602;87;20544;-79
2021/05/21 21:04:14;;;;;;;1.85;0.50;;;11.30;99.90;;;;;;6768289;87;20285;-78
2021/05/21 22:05:31;;;;;;;2.47;0.60;;;11.20;99.90;;;;;;6768067;87;20208;-78
2021/05/21 22:15:57;;;;;;;2.08;0.45;;;11.20;99.90;;;;;;6754474;87;20279;-77
2021/05/21 22:25:58;;;;;;;3.55;0.50;;;11.00;99.90;;;;;;6758364;87;20671;-75
2021/05/21 22:36:03;;;;;;;2.08;0.52;;;10.80;99.90;;;;;;6772098;87;20255;-78
2021/05/21 22:46:04;;;;;;;3.53;0.60;;;10.80;99.90;;;;;;6756101;87;20210;-78
2021/05/21 22:56:04;;;;;;;2.45;0.52;;;10.90;99.90;;;;;;6753037;88;20631;-78
2021/05/21 23:06:05;;;;;;;2.78;0.50;;;10.70;99.90;;;;;;6757100;88;20235;-77
2021/05/21 23:16:06;;;;;;;2.63;0.60;;;10.60;99.90;;;;;;6753276;88;20229;-78
2021/05/21 23:26:06;;;;;;;3.00;0.60;;;10.50;99.90;;;;;;6753371;88;20175;-77
2021/05/21 23:36:07;;;;;;;2.12;0.50;;;10.50;99.90;;;;;;6764673;87;20679;-77
2021/05/21 23:46:08;;;;;;;2.92;0.70;;;10.50;99.90;;;;;;6770384;87;20220;-78
2021/05/21 23:56:08;;;;;;;3.00;0.57;;;10.40;99.90;;;;;;6766678;87;20190;-79
